Time;durP1;ratioP1;P1;durP2;ratioP2;P2;SDS_P1;SDS_P2;PMS_P1;PMS_P2;Temp;Humidity;BMP_temperature;BMP_pressure;BME280_temperature;BME280_humidity;BME280_pressure;Samples;Min_cycle;Max_cycle;Signal;HPM_P1;HPM_P2
2021/10/08 00:01:37;;;;;;;;;19.33;18.00;;;;;;;;5129578;27;8895;-82
2021/10/08 00:04:03;;;;;;;;;17.00;17.00;;;;;;;;5127114;27;8829;-82
2021/10/08 00:06:28;;;;;;;;;13.33;13.00;;;;;;;;5126574;27;8883;-78
2021/10/08 00:08:53;;;;;;;;;19.00;18.00;;;;;;;;5134483;27;8814;-78
2021/10/08 00:11:18;;;;;;;;;18.33;15.33;;;;;;;;5126252;27;8858;-79
2021/10/08 00:13:44;;;;;;;;;17.00;15.00;;;;;;;;5127224;27;8820;-78
2021/10/08 00:16:09;;;;;;;;;12.67;12.67;;;;;;;;5123591;27;9827;-79
2021/10/08 00:18:35;;;;;;;;;16.67;15.33;;;;;;;;5121816;27;8850;-79
2021/10/08 00:21:01;;;;;;;;;20.25;16.50;;;;;;;;5127340;27;8915;-79
2021/10/08 00:23:26;;;;;;;;;16.67;16.33;;;;;;;;5123498;27;8889;-81
2021/10/08 00:25:51;;;;;;;;;18.67;18.33;;;;;;;;5118974;27;8812;-81
2021/10/08 00:28:17;;;;;;;;;23.33;21.00;;;;;;;;5117215;27;8823;-82
2021/10/08 00:30:42;;;;;;;;;26.33;24.67;;;;;;;;5120011;27;9611;-82
2021/10/08 00:33:07;;;;;;;;;20.33;19.33;;;;;;;;5116769;27;8811;-82
2021/10/08 00:35:32;;;;;;;;;24.67;19.33;;;;;;;;5119233;27;8815;-79
2021/10/08 00:37:58;;;;;;;;;15.00;13.33;;;;;;;;5120199;27;8814;-79
2021/10/08 00:40:23;;;;;;;;;15.33;15.33;;;;;;;;5118944;27;9594;-79
2021/10/08 00:42:49;;;;;;;;;15.67;15.67;;;;;;;;5121722;27;9682;-79
2021/10/08 00:45:15;;;;;;;;;16.33;16.00;;;;;;;;5117380;27;8807;-79
2021/10/08 00:47:40;;;;;;;;;14.67;14.67;;;;;;;;5123916;27;8799;-79
2021/10/08 00:50:07;;;;;;;;;19.00;17.33;;;;;;;;5118211;27;8810;-78
2021/10/08 00:52:32;;;;;;;;;20.00;19.33;;;;;;;;5118297;27;8803;-79
2021/10/08 00:54:57;;;;;;;;;20.33;19.33;;;;;;;;5116912;27;9009;-82
2021/10/08 00:57:23;;;;;;;;;19.67;17.00;;;;;;;;5121449;27;9558;-81
2021/10/08 00:59:48;;;;;;;;;19.67;19.67;;;;;;;;5120651;27;8795;-82
2021/10/08 01:02:14;;;;;;;;;22.00;21.33;;;;;;;;5123198;27;8819;-82
2021/10/08 01:04:39;;;;;;;;;21.33;20.00;;;;;;;;5118333;27;8803;-81
2021/10/08 01:07:04;;;;;;;;;21.33;21.33;;;;;;;;5118656;27;8853;-79
2021/10/08 01:09:29;;;;;;;;;26.67;20.00;;;;;;;;5117147;27;8816;-79
2021/10/08 01:11:55;;;;;;;;;19.33;18.33;;;;;;;;5114269;27;8973;-79
2021/10/08 01:14:20;;;;;;;;;22.67;19.00;;;;;;;;5118343;27;8922;-80
2021/10/08 01:16:45;;;;;;;;;19.33;19.00;;;;;;;;5117262;27;8831;-79
2021/10/08 01:19:11;;;;;;;;;23.33;23.33;;;;;;;;5117370;27;8827;-79
2021/10/08 01:21:36;;;;;;;;;18.33;18.33;;;;;;;;5129052;27;9083;-79
2021/10/08 01:24:02;;;;;;;;;19.67;19.33;;;;;;;;5126568;27;8834;-82
2021/10/08 01:26:27;;;;;;;;;18.00;17.67;;;;;;;;5120444;27;8827;-82
2021/10/08 01:28:52;;;;;;;;;20.00;20.00;;;;;;;;5119717;27;8819;-81
2021/10/08 01:31:17;;;;;;;;;19.67;18.00;;;;;;;;5133256;27;8823;-82
2021/10/08 01:33:43;;;;;;;;;17.00;15.67;;;;;;;;5121585;27;8846;-81
2021/10/08 01:36:08;;;;;;;;;15.00;14.33;;;;;;;;5125522;27;8828;-81
2021/10/08 01:38:33;;;;;;;;;18.00;15.33;;;;;;;;5124737;27;8856;-79
2021/10/08 01:40:58;;;;;;;;;18.33;18.33;;;;;;;;5118332;27;8807;-79
2021/10/08 01:43:24;;;;;;;;;13.00;13.00;;;;;;;;5122736;27;8910;-79
2021/10/08 01:45:49;;;;;;;;;18.00;17.00;;;;;;;;5122024;27;8826;-79
2021/10/08 01:48:14;;;;;;;;;16.33;15.67;;;;;;;;5127962;27;8824;-79
2021/10/08 01:50:39;;;;;;;;;14.33;14.33;;;;;;;;5123658;27;8823;-79
2021/10/08 01:53:07;;;;;;;;;13.67;12.67;;;;;;;;5129554;27;8810;-82
2021/10/08 01:55:32;;;;;;;;;14.75;14.75;;;;;;;;5130004;27;8811;-82
2021/10/08 01:57:58;;;;;;;;;19.00;18.00;;;;;;;;5124126;27;8830;-81
2021/10/08 02:00:23;;;;;;;;;15.00;14.33;;;;;;;;5126913;27;8824;-82
2021/10/08 02:02:48;;;;;;;;;17.00;15.00;;;;;;;;5130947;27;8827;-82
2021/10/08 02:05:13;;;;;;;;;13.67;13.33;;;;;;;;5133282;27;8844;-81
2021/10/08 02:07:38;;;;;;;;;12.00;12.00;;;;;;;;5130382;27;8832;-82
2021/10/08 02:10:04;;;;;;;;;17.33;17.00;;;;;;;;5134122;27;8861;-82
2021/10/08 02:12:30;;;;;;;;;16.25;14.00;;;;;;;;5129310;27;9733;-82
2021/10/08 02:14:55;;;;;;;;;13.00;13.00;;;;;;;;5133568;27;8851;-81
2021/10/08 02:17:20;;;;;;;;;13.67;13.67;;;;;;;;5134562;27;9595;-82
2021/10/08 02:19:45;;;;;;;;;12.67;12.67;;;;;;;;5125442;27;8821;-82
2021/10/08 02:22:11;;;;;;;;;13.00;12.33;;;;;;;;5131929;27;9666;-80
2021/10/08 02:24:36;;;;;;;;;17.67;16.00;;;;;;;;5121668;27;8815;-79
2021/10/08 02:27:01;;;;;;;;;13.00;11.67;;;;;;;;5130072;27;8869;-79
2021/10/08 02:29:27;;;;;;;;;13.67;12.00;;;;;;;;5126512;27;8909;-79
2021/10/08 02:31:53;;;;;;;;;14.00;14.00;;;;;;;;5128415;27;8827;-79
2021/10/08 02:34:18;;;;;;;;;14.00;13.00;;;;;;;;5133152;27;8801;-79
2021/10/08 02:36:43;;;;;;;;;10.33;10.33;;;;;;;;5130487;27;8824;-79
2021/10/08 02:39:09;;;;;;;;;16.00;14.67;;;;;;;;5119737;27;8845;-82
2021/10/08 02:41:34;;;;;;;;;15.00;14.33;;;;;;;;5119626;27;8791;-81
2021/10/08 02:43:59;;;;;;;;;15.33;15.00;;;;;;;;5119178;27;8888;-82
2021/10/08 02:46:24;;;;;;;;;14.67;13.67;;;;;;;;5119895;27;8821;-82
2021/10/08 02:48:49;;;;;;;;;12.33;12.33;;;;;;;;5120399;27;8833;-82
2021/10/08 02:51:15;;;;;;;;;14.67;14.67;;;;;;;;5119690;27;8783;-80
2021/10/08 02:53:40;;;;;;;;;12.33;12.00;;;;;;;;5119216;27;8960;-80
2021/10/08 02:56:05;;;;;;;;;16.33;15.00;;;;;;;;5118926;27;8799;-79
2021/10/08 02:58:31;;;;;;;;;16.00;16.00;;;;;;;;5126973;27;8909;-79
2021/10/08 03:00:56;;;;;;;;;13.00;13.00;;;;;;;;5138167;27;8860;-80
2021/10/08 03:03:21;;;;;;;;;12.67;12.67;;;;;;;;5139647;27;8836;-79
2021/10/08 03:05:46;;;;;;;;;15.67;14.00;;;;;;;;5139549;27;8839;-79
2021/10/08 03:08:12;;;;;;;;;14.00;14.00;;;;;;;;5140748;27;8831;-81
2021/10/08 03:10:37;;;;;;;;;18.00;16.67;;;;;;;;5140999;27;8781;-81
2021/10/08 03:13:03;;;;;;;;;16.00;15.00;;;;;;;;5140650;27;8793;-79
2021/10/08 03:15:28;;;;;;;;;20.33;17.00;;;;;;;;5139015;27;9562;-81
2021/10/08 03:17:53;;;;;;;;;16.67;15.33;;;;;;;;5139711;27;8824;-81
2021/10/08 03:20:19;;;;;;;;;17.00;16.00;;;;;;;;5140766;27;8839;-79
2021/10/08 03:22:44;;;;;;;;;17.67;17.67;;;;;;;;5140045;27;8820;-79
2021/10/08 03:25:09;;;;;;;;;14.00;14.00;;;;;;;;5139836;27;8812;-79
2021/10/08 03:27:35;;;;;;;;;14.33;14.00;;;;;;;;5137805;27;8884;-79
2021/10/08 03:30:01;;;;;;;;;13.33;13.33;;;;;;;;5145918;27;8778;-78
2021/10/08 03:32:26;;;;;;;;;18.00;16.67;;;;;;;;5159930;27;8805;-79
2021/10/08 03:34:52;;;;;;;;;13.00;11.67;;;;;;;;5160448;27;8853;-79
2021/10/08 03:37:20;;;;;;;;;16.00;15.33;;;;;;;;5159339;27;8786;-81
2021/10/08 03:39:48;;;;;;;;;16.50;16.25;;;;;;;;5159635;27;9230;-81
2021/10/08 03:42:16;;;;;;;;;14.00;13.50;;;;;;;;5159673;27;8802;-83
2021/10/08 03:44:44;;;;;;;;;15.25;13.75;;;;;;;;5158314;27;8817;-83
2021/10/08 03:47:21;;;;;;;;;14.50;13.00;;;;;;;;5159534;27;8817;-82
2021/10/08 03:49:46;;;;;;;;;18.25;18.25;;;;;;;;5159667;27;8711;-81
2021/10/08 03:52:11;;;;;;;;;16.67;16.00;;;;;;;;5159933;27;8793;-81
2021/10/08 03:54:37;;;;;;;;;15.67;15.00;;;;;;;;5160792;27;8798;-82
2021/10/08 03:57:02;;;;;;;;;18.33;14.67;;;;;;;;5159320;27;8770;-83
2021/10/08 03:59:28;;;;;;;;;14.33;14.33;;;;;;;;5161202;27;8887;-82
2021/10/08 04:01:55;;;;;;;;;16.33;15.00;;;;;;;;5162327;27;8782;-83
2021/10/08 04:04:20;;;;;;;;;16.75;15.50;;;;;;;;5161568;27;8714;-83
2021/10/08 04:06:46;;;;;;;;;15.67;15.00;;;;;;;;5162427;27;9560;-84
2021/10/08 04:09:11;;;;;;;;;16.00;16.00;;;;;;;;5158361;27;8797;-83
2021/10/08 04:11:36;;;;;;;;;12.33;12.33;;;;;;;;5160227;27;8872;-82
2021/10/08 04:14:02;;;;;;;;;16.00;15.00;;;;;;;;5159348;27;8797;-83
2021/10/08 04:16:27;;;;;;;;;13.00;13.00;;;;;;;;5158108;27;8822;-83
2021/10/08 04:18:53;;;;;;;;;18.00;17.67;;;;;;;;5160486;27;8829;-82
2021/10/08 04:21:18;;;;;;;;;19.00;18.00;;;;;;;;5158920;27;8861;-82
2021/10/08 04:23:43;;;;;;;;;19.00;17.00;;;;;;;;5160174;27;8825;-83
2021/10/08 04:26:09;;;;;;;;;16.67;16.00;;;;;;;;5159800;27;8786;-83
2021/10/08 04:28:34;;;;;;;;;15.00;15.00;;;;;;;;5160424;27;8782;-83
2021/10/08 04:30:59;;;;;;;;;15.33;15.33;;;;;;;;5144266;27;8796;-82
2021/10/08 04:33:26;;;;;;;;;14.00;14.00;;;;;;;;5138078;27;8827;-82
2021/10/08 04:35:52;;;;;;;;;16.00;14.50;;;;;;;;5138097;27;8793;-83
2021/10/08 04:38:17;;;;;;;;;14.67;14.67;;;;;;;;5138029;27;8788;-82
2021/10/08 04:40:43;;;;;;;;;15.33;14.00;;;;;;;;5138026;27;8823;-83
2021/10/08 04:43:08;;;;;;;;;15.67;15.33;;;;;;;;5138246;27;8824;-82
2021/10/08 04:45:34;;;;;;;;;17.33;17.33;;;;;;;;5140043;27;8812;-82
2021/10/08 04:47:59;;;;;;;;;20.00;20.00;;;;;;;;5137333;27;8826;-82
2021/10/08 04:50:25;;;;;;;;;22.00;21.00;;;;;;;;5137140;27;8823;-82
2021/10/08 04:52:50;;;;;;;;;21.00;21.00;;;;;;;;5137647;27;8792;-82
2021/10/08 04:55:15;;;;;;;;;21.67;20.33;;;;;;;;5144148;27;8877;-83
2021/10/08 04:57:42;;;;;;;;;21.00;19.67;;;;;;;;5145669;27;8789;-83
2021/10/08 05:00:07;;;;;;;;;20.00;18.50;;;;;;;;5139917;27;8807;-81
2021/10/08 05:02:33;;;;;;;;;17.67;17.00;;;;;;;;5125075;27;8839;-82
2021/10/08 05:04:58;;;;;;;;;19.67;17.33;;;;;;;;5141599;27;8823;-82
2021/10/08 05:07:24;;;;;;;;;17.33;17.00;;;;;;;;5138556;27;8788;-81
2021/10/08 05:09:49;;;;;;;;;18.00;15.67;;;;;;;;5137695;27;8818;-82
2021/10/08 05:12:14;;;;;;;;;17.33;17.33;;;;;;;;5137481;27;8927;-82
2021/10/08 05:14:40;;;;;;;;;15.33;15.33;;;;;;;;5137714;27;8865;-81
2021/10/08 05:17:05;;;;;;;;;21.33;19.33;;;;;;;;5131282;27;8845;-83
2021/10/08 05:19:30;;;;;;;;;14.67;14.67;;;;;;;;5116804;27;8802;-81
2021/10/08 05:21:55;;;;;;;;;16.67;16.00;;;;;;;;5115322;28;8815;-81
2021/10/08 05:24:21;;;;;;;;;17.67;17.00;;;;;;;;5115592;28;8909;-82
2021/10/08 05:26:47;;;;;;;;;16.00;15.33;;;;;;;;5116725;27;8783;-85
2021/10/08 05:29:12;;;;;;;;;16.00;15.00;;;;;;;;5116825;27;8936;-83
2021/10/08 05:31:38;;;;;;;;;15.00;15.00;;;;;;;;5115458;28;8842;-84
2021/10/08 05:34:03;;;;;;;;;19.33;16.00;;;;;;;;5115449;28;8851;-84
2021/10/08 05:36:28;;;;;;;;;20.67;17.67;;;;;;;;5129744;27;8893;-84
2021/10/08 05:38:53;;;;;;;;;20.67;20.00;;;;;;;;5137781;27;8898;-80
2021/10/08 05:41:19;;;;;;;;;18.00;16.33;;;;;;;;5137120;27;8788;-80
2021/10/08 05:43:44;;;;;;;;;19.67;17.67;;;;;;;;5137166;27;8853;-79
2021/10/08 05:46:10;;;;;;;;;24.33;21.33;;;;;;;;5136129;27;8800;-82
2021/10/08 05:48:35;;;;;;;;;19.67;18.00;;;;;;;;5136994;27;8796;-82
2021/10/08 05:51:00;;;;;;;;;20.33;16.67;;;;;;;;5136436;27;8925;-83
2021/10/08 05:53:26;;;;;;;;;19.00;19.00;;;;;;;;5127423;27;8813;-83
2021/10/08 05:55:51;;;;;;;;;20.67;19.67;;;;;;;;5130410;27;8835;-82
2021/10/08 05:58:16;;;;;;;;;19.33;19.33;;;;;;;;5124740;27;8813;-82
2021/10/08 06:00:41;;;;;;;;;18.33;18.00;;;;;;;;5118588;27;8799;-82
2021/10/08 06:03:07;;;;;;;;;22.00;20.67;;;;;;;;5126766;27;8832;-80
2021/10/08 06:05:36;;;;;;;;;20.00;18.33;;;;;;;;5137075;27;8832;-82
2021/10/08 06:08:02;;;;;;;;;16.33;16.33;;;;;;;;5135596;27;8923;-82
2021/10/08 06:10:27;;;;;;;;;19.33;17.00;;;;;;;;5137177;27;8894;-82
2021/10/08 06:12:52;;;;;;;;;19.67;18.67;;;;;;;;5135450;27;9571;-82
2021/10/08 06:15:18;;;;;;;;;19.00;17.67;;;;;;;;5136775;27;8780;-81
2021/10/08 06:17:43;;;;;;;;;18.33;16.67;;;;;;;;5136482;27;9564;-81
2021/10/08 06:20:08;;;;;;;;;16.67;16.67;;;;;;;;5132055;27;8816;-81
2021/10/08 06:22:38;;;;;;;;;19.00;15.33;;;;;;;;5135638;27;8812;-81
2021/10/08 06:25:05;;;;;;;;;21.33;19.33;;;;;;;;5137516;27;8776;-81
2021/10/08 06:27:30;;;;;;;;;27.00;24.33;;;;;;;;5138540;27;9818;-81
2021/10/08 06:29:56;;;;;;;;;22.00;21.33;;;;;;;;5143229;27;9247;-82
2021/10/08 06:32:21;;;;;;;;;23.33;23.00;;;;;;;;5159402;27;8845;-82
2021/10/08 06:34:46;;;;;;;;;24.67;22.33;;;;;;;;5145250;27;8788;-82
2021/10/08 06:37:11;;;;;;;;;21.67;20.67;;;;;;;;5136932;27;8818;-81
2021/10/08 06:39:36;;;;;;;;;22.33;20.67;;;;;;;;5126774;27;8874;-83
2021/10/08 06:42:02;;;;;;;;;26.67;25.67;;;;;;;;5139647;27;8784;-82
2021/10/08 06:44:27;;;;;;;;;23.67;22.33;;;;;;;;5123196;27;8870;-82
2021/10/08 06:46:52;;;;;;;;;25.33;24.67;;;;;;;;5134275;27;8800;-79
2021/10/08 06:49:18;;;;;;;;;25.00;23.67;;;;;;;;5139910;27;8784;-79
2021/10/08 06:51:43;;;;;;;;;26.33;21.33;;;;;;;;5141084;27;8870;-80
2021/10/08 06:54:08;;;;;;;;;25.67;20.67;;;;;;;;5139782;27;8878;-80
2021/10/08 06:56:33;;;;;;;;;24.00;23.00;;;;;;;;5139589;27;8808;-76
2021/10/08 06:58:59;;;;;;;;;28.33;25.67;;;;;;;;5139624;27;9627;-75
2021/10/08 07:01:24;;;;;;;;;27.67;26.33;;;;;;;;5139567;27;9564;-76
2021/10/08 07:03:49;;;;;;;;;23.00;21.00;;;;;;;;5139559;27;8808;-77
2021/10/08 07:06:15;;;;;;;;;25.33;22.00;;;;;;;;5139464;27;8760;-76
2021/10/08 07:08:40;;;;;;;;;29.00;25.33;;;;;;;;5139973;27;9559;-80
2021/10/08 07:11:05;;;;;;;;;29.33;25.00;;;;;;;;5142555;27;8784;-80
2021/10/08 07:13:31;;;;;;;;;29.33;24.33;;;;;;;;5141686;27;8873;-79
2021/10/08 07:15:58;;;;;;;;;26.67;25.00;;;;;;;;5140283;27;8788;-79
2021/10/08 07:18:25;;;;;;;;;27.67;23.33;;;;;;;;5141773;27;8796;-80
2021/10/08 07:20:50;;;;;;;;;29.00;28.00;;;;;;;;5138881;27;8937;-81
2021/10/08 07:23:16;;;;;;;;;23.33;22.67;;;;;;;;5138284;27;8975;-80
2021/10/08 07:25:41;;;;;;;;;22.67;21.00;;;;;;;;5138260;27;8883;-80
2021/10/08 07:28:07;;;;;;;;;28.00;27.00;;;;;;;;5137266;27;8835;-80
2021/10/08 07:30:32;;;;;;;;;29.67;26.00;;;;;;;;5149652;27;8802;-80
2021/10/08 07:32:57;;;;;;;;;30.00;26.00;;;;;;;;5160061;27;8806;-80
2021/10/08 07:35:22;;;;;;;;;26.00;24.67;;;;;;;;5158430;27;8824;-80
2021/10/08 07:37:48;;;;;;;;;33.33;29.67;;;;;;;;5159731;27;8816;-81
2021/10/08 07:40:13;;;;;;;;;29.00;29.00;;;;;;;;5158500;27;8818;-80
2021/10/08 07:42:39;;;;;;;;;33.33;30.00;;;;;;;;5159563;27;8786;-81
2021/10/08 07:45:06;;;;;;;;;26.33;25.00;;;;;;;;5159757;27;9568;-80
2021/10/08 07:47:31;;;;;;;;;30.67;27.33;;;;;;;;5159994;27;8792;-80
2021/10/08 07:49:56;;;;;;;;;26.33;24.67;;;;;;;;5159510;27;9107;-80
2021/10/08 07:52:23;;;;;;;;;29.33;25.67;;;;;;;;5159682;27;8882;-81
2021/10/08 07:54:48;;;;;;;;;26.33;23.00;;;;;;;;5159761;27;8741;-81
2021/10/08 07:57:13;;;;;;;;;32.00;29.67;;;;;;;;5159608;27;9163;-81
2021/10/08 07:59:38;;;;;;;;;31.00;28.00;;;;;;;;5159692;27;8786;-81
2021/10/08 08:02:03;;;;;;;;;24.67;23.67;;;;;;;;5158091;27;8806;-81
2021/10/08 08:04:29;;;;;;;;;28.67;27.33;;;;;;;;5159504;27;8832;-80
2021/10/08 08:06:54;;;;;;;;;26.00;25.33;;;;;;;;5158056;27;8925;-81
2021/10/08 08:09:19;;;;;;;;;23.67;23.00;;;;;;;;5159592;27;8828;-81
2021/10/08 08:11:44;;;;;;;;;30.00;27.33;;;;;;;;5159250;27;8777;-81
2021/10/08 08:14:10;;;;;;;;;24.67;24.00;;;;;;;;5159318;27;9559;-81
2021/10/08 08:16:35;;;;;;;;;27.00;26.00;;;;;;;;5159414;27;8778;-81
2021/10/08 08:19:01;;;;;;;;;29.33;25.67;;;;;;;;5158934;27;8851;-81
2021/10/08 08:21:26;;;;;;;;;23.67;22.00;;;;;;;;5159329;27;8896;-81
2021/10/08 08:23:51;;;;;;;;;25.00;25.00;;;;;;;;5158768;27;8904;-82
2021/10/08 08:26:16;;;;;;;;;26.33;25.00;;;;;;;;5161277;27;8814;-81
2021/10/08 08:28:42;;;;;;;;;27.33;26.00;;;;;;;;5157598;27;8798;-81
2021/10/08 08:31:07;;;;;;;;;27.67;26.00;;;;;;;;5143251;27;8800;-81
2021/10/08 08:33:35;;;;;;;;;27.67;26.67;;;;;;;;5138526;27;8810;-81
2021/10/08 08:36:00;;;;;;;;;25.75;24.75;;;;;;;;5138082;27;8772;-81
2021/10/08 08:38:26;;;;;;;;;22.00;21.67;;;;;;;;5138143;27;8780;-81
2021/10/08 08:40:51;;;;;;;;;24.00;23.33;;;;;;;;5136969;27;8828;-81
2021/10/08 08:43:17;;;;;;;;;23.67;23.33;;;;;;;;5138135;27;8816;-81
2021/10/08 08:45:42;;;;;;;;;25.00;25.00;;;;;;;;5136865;27;8824;-80
2021/10/08 08:48:09;;;;;;;;;23.33;22.33;;;;;;;;5138206;27;8788;-81
2021/10/08 08:50:38;;;;;;;;;23.00;21.00;;;;;;;;5137790;27;8761;-81
2021/10/08 08:53:03;;;;;;;;;26.00;24.50;;;;;;;;5136471;27;8866;-81
2021/10/08 08:55:28;;;;;;;;;24.67;22.67;;;;;;;;5137335;27;8811;-80
2021/10/08 08:57:53;;;;;;;;;24.67;24.67;;;;;;;;5136286;27;8899;-80
2021/10/08 09:00:20;;;;;;;;;23.67;19.67;;;;;;;;5137865;27;9563;-80
2021/10/08 09:02:55;;;;;;;;;26.00;24.00;;;;;;;;5137892;27;8796;-80
2021/10/08 09:05:28;;;;;;;;;24.50;23.50;;;;;;;;5137887;27;9690;-81
2021/10/08 09:07:57;;;;;;;;;22.25;18.75;;;;;;;;5137748;27;8780;-80
2021/10/08 09:10:26;;;;;;;;;22.00;22.00;;;;;;;;5137843;27;8725;-80
2021/10/08 09:12:56;;;;;;;;;20.50;19.50;;;;;;;;5137499;27;8902;-80
2021/10/08 09:15:23;;;;;;;;;20.75;20.75;;;;;;;;5137659;27;9745;-81
2021/10/08 09:17:49;;;;;;;;;22.50;20.25;;;;;;;;5137423;27;8927;-80
2021/10/08 09:20:15;;;;;;;;;17.33;17.33;;;;;;;;5137582;27;8875;-81
2021/10/08 09:22:40;;;;;;;;;23.25;20.50;;;;;;;;5137511;27;8784;-81
2021/10/08 09:25:30;;;;;;;;;17.67;17.67;;;;;;;;5137607;27;8831;-80
2021/10/08 09:27:59;;;;;;;;;19.50;17.25;;;;;;;;5135886;27;8777;-81
2021/10/08 09:30:34;;;;;;;;;20.00;19.00;;;;;;;;5146862;27;8777;-81
2021/10/08 09:32:59;;;;;;;;;15.75;15.50;;;;;;;;5158245;27;8758;-81
2021/10/08 09:35:25;;;;;;;;;15.00;14.33;;;;;;;;5158269;27;8820;-81
2021/10/08 09:37:54;;;;;;;;;17.00;17.00;;;;;;;;5158538;27;8727;-79
2021/10/08 09:40:27;;;;;;;;;15.50;15.50;;;;;;;;5158023;27;8792;-78
2021/10/08 09:43:11;;;;;;;;;18.50;15.75;;;;;;;;5158014;27;9781;-78
2021/10/08 09:45:39;;;;;;;;;12.00;10.00;;;;;;;;5157765;27;8781;-80
2021/10/08 09:48:05;;;;;;;;;14.75;14.50;;;;;;;;5158499;27;8784;-80
2021/10/08 09:50:30;;;;;;;;;13.00;13.00;;;;;;;;5158379;27;8861;-79
2021/10/08 09:53:09;;;;;;;;;13.33;13.33;;;;;;;;5158341;27;10575;-82
2021/10/08 09:55:34;;;;;;;;;12.25;12.25;;;;;;;;5160265;27;8778;-82
2021/10/08 09:57:59;;;;;;;;;10.00;10.00;;;;;;;;5158403;27;8763;-80
2021/10/08 10:00:37;;;;;;;;;13.33;11.33;;;;;;;;5157497;27;8798;-83
2021/10/08 10:03:07;;;;;;;;;9.75;9.75;;;;;;;;5159323;27;8798;-81
2021/10/08 10:05:33;;;;;;;;;9.00;7.25;;;;;;;;5134551;27;8753;-83
2021/10/08 10:07:58;;;;;;;;;9.00;9.00;;;;;;;;5143411;27;8856;-83
2021/10/08 10:10:24;;;;;;;;;9.33;8.33;;;;;;;;5140580;27;8776;-82
2021/10/08 10:12:50;;;;;;;;;8.00;8.00;;;;;;;;5140064;27;8799;-80
2021/10/08 10:15:16;;;;;;;;;6.50;6.50;;;;;;;;5140235;27;8803;-82
2021/10/08 10:17:42;;;;;;;;;7.75;7.75;;;;;;;;5126949;27;8845;-80
2021/10/08 10:20:11;;;;;;;;;8.25;7.25;;;;;;;;5119707;27;9729;-82
2021/10/08 10:22:37;;;;;;;;;8.00;8.00;;;;;;;;5119949;27;8787;-79
2021/10/08 10:25:03;;;;;;;;;8.00;8.00;;;;;;;;5121855;27;8797;-79
2021/10/08 10:27:28;;;;;;;;;6.75;6.00;;;;;;;;5118744;27;8791;-81
2021/10/08 10:29:54;;;;;;;;;7.00;7.00;;;;;;;;5134121;27;8855;-83
2021/10/08 10:32:20;;;;;;;;;7.00;6.00;;;;;;;;5162951;27;9565;-83
2021/10/08 10:34:46;;;;;;;;;7.00;7.00;;;;;;;;5164413;27;11451;-84
2021/10/08 10:37:31;;;;;;;;;6.00;5.67;;;;;;;;5162784;27;8781;-84
2021/10/08 10:40:14;;;;;;;;;6.50;5.50;;;;;;;;5145382;27;8801;-82
2021/10/08 10:42:39;;;;;;;;;7.75;6.25;;;;;;;;5143193;27;8862;-80
2021/10/08 10:45:06;;;;;;;;;4.00;4.00;;;;;;;;5143001;27;8804;-80
2021/10/08 10:47:35;;;;;;;;;6.00;6.00;;;;;;;;5142936;27;8773;-82
2021/10/08 10:50:21;;;;;;;;;5.25;5.25;;;;;;;;5145737;27;8760;-82
2021/10/08 10:52:47;;;;;;;;;4.25;4.25;;;;;;;;5141919;27;8764;-84
2021/10/08 10:55:12;;;;;;;;;5.00;5.00;;;;;;;;5139964;27;8812;-84
2021/10/08 10:57:37;;;;;;;;;7.33;7.33;;;;;;;;5138446;27;8899;-85
2021/10/08 11:00:21;;;;;;;;;5.00;5.00;;;;;;;;5140585;27;8780;-84
2021/10/08 11:02:47;;;;;;;;;7.75;6.00;;;;;;;;5129770;27;8842;-80
2021/10/08 11:05:20;;;;;;;;;7.33;7.00;;;;;;;;5125989;27;8791;-82
2021/10/08 11:08:03;;;;;;;;;5.00;4.00;;;;;;;;5126326;27;8887;-82
2021/10/08 11:10:29;;;;;;;;;8.50;7.25;;;;;;;;5132304;27;8779;-83
2021/10/08 11:13:14;;;;;;;;;4.33;4.33;;;;;;;;5128045;27;9548;-79
2021/10/08 11:15:39;;;;;;;;;5.75;4.75;;;;;;;;5121108;28;8785;-81
2021/10/08 11:18:04;;;;;;;;;5.00;5.00;;;;;;;;5121840;27;8799;-81
2021/10/08 11:20:30;;;;;;;;;5.00;5.00;;;;;;;;5120854;27;8811;-78
2021/10/08 11:22:57;;;;;;;;;7.00;6.00;;;;;;;;5115876;27;9803;-83
2021/10/08 11:25:22;;;;;;;;;3.75;3.75;;;;;;;;5117145;27;8826;-82
2021/10/08 11:27:48;;;;;;;;;3.33;3.33;;;;;;;;5123728;27;8815;-81
2021/10/08 11:30:13;;;;;;;;;3.50;3.50;;;;;;;;5145007;27;8808;-80
2021/10/08 11:32:47;;;;;;;;;4.67;4.67;;;;;;;;5158056;27;8785;-80
2021/10/08 11:35:17;;;;;;;;;5.50;5.50;;;;;;;;5160049;27;8762;-80
2021/10/08 11:37:43;;;;;;;;;7.00;6.75;;;;;;;;5142644;27;9814;-82
2021/10/08 11:40:10;;;;;;;;;6.67;6.67;;;;;;;;5131566;27;8879;-82
2021/10/08 11:42:38;;;;;;;;;5.25;5.25;;;;;;;;5131855;27;8881;-81
2021/10/08 11:45:07;;;;;;;;;5.75;5.00;;;;;;;;5136689;27;8765;-83
2021/10/08 11:52:40;;;;;;;;;4.25;4.25;;;;;;;;5132383;27;8789;-82
2021/10/08 11:55:05;;;;;;;;;6.00;6.00;;;;;;;;5139766;27;8781;-81
2021/10/08 11:57:44;;;;;;;;;5.67;4.67;;;;;;;;5134417;27;8840;-79
2021/10/08 12:00:10;;;;;;;;;7.50;7.50;;;;;;;;5139487;27;10062;-80
2021/10/08 12:02:35;;;;;;;;;6.33;6.00;;;;;;;;5143710;27;8816;-79
2021/10/08 12:05:01;;;;;;;;;7.33;7.33;;;;;;;;5144181;27;8856;-79
2021/10/08 12:07:31;;;;;;;;;5.75;5.25;;;;;;;;5154606;27;8725;-79
2021/10/08 12:10:12;;;;;;;;;7.75;6.25;;;;;;;;5153052;27;8747;-79
2021/10/08 12:12:48;;;;;;;;;4.50;4.00;;;;;;;;5155117;27;8747;-80
2021/10/08 12:15:20;;;;;;;;;5.25;5.25;;;;;;;;5154005;27;8824;-79
2021/10/08 12:17:49;;;;;;;;;4.75;4.75;;;;;;;;5153967;27;8805;-78
2021/10/08 12:20:21;;;;;;;;;6.00;6.00;;;;;;;;5154671;27;8807;-78
2021/10/08 12:22:47;;;;;;;;;5.75;5.75;;;;;;;;5152889;27;8744;-78
2021/10/08 12:25:15;;;;;;;;;4.75;4.75;;;;;;;;5153049;27;9466;-79
2021/10/08 12:27:41;;;;;;;;;5.25;5.25;;;;;;;;5151562;27;8753;-78
2021/10/08 12:30:06;;;;;;;;;6.33;6.33;;;;;;;;5151631;27;8753;-79
2021/10/08 12:32:32;;;;;;;;;6.67;5.00;;;;;;;;5153343;27;8792;-79
2021/10/08 12:34:57;;;;;;;;;6.33;6.33;;;;;;;;5142772;27;8927;-80
2021/10/08 12:37:30;;;;;;;;;7.00;7.00;;;;;;;;5138072;27;8780;-80
2021/10/08 12:40:01;;;;;;;;;4.50;4.00;;;;;;;;5139096;27;9742;-80
2021/10/08 12:42:28;;;;;;;;;4.50;4.50;;;;;;;;5148969;27;8865;-78
2021/10/08 12:44:58;;;;;;;;;7.25;6.75;;;;;;;;5150006;27;8777;-82
2021/10/08 12:47:25;;;;;;;;;6.00;5.75;;;;;;;;5154155;27;8768;-78
2021/10/08 12:49:58;;;;;;;;;3.50;3.50;;;;;;;;5152168;27;8819;-79
2021/10/08 12:52:34;;;;;;;;;7.75;6.75;;;;;;;;5158445;27;8763;-78
2021/10/08 12:55:08;;;;;;;;;6.50;5.00;;;;;;;;5162020;27;8728;-76
2021/10/08 12:57:34;;;;;;;;;7.75;7.50;;;;;;;;5157597;27;8752;-77
2021/10/08 12:59:59;;;;;;;;;7.00;7.00;;;;;;;;5157094;27;8743;-78
2021/10/08 13:02:43;;;;;;;;;4.33;4.33;;;;;;;;5162898;27;8922;-78
2021/10/08 13:05:09;;;;;;;;;5.00;5.00;;;;;;;;5161728;27;8810;-78
2021/10/08 13:07:35;;;;;;;;;3.00;3.00;;;;;;;;5158729;27;8724;-77
2021/10/08 13:10:04;;;;;;;;;6.33;5.67;;;;;;;;5158093;27;11589;-78
2021/10/08 13:12:43;;;;;;;;;5.00;5.00;;;;;;;;5156314;27;8729;-79
2021/10/08 13:15:10;;;;;;;;;4.75;4.75;;;;;;;;5145269;27;8846;-80
2021/10/08 13:17:35;;;;;;;;;6.00;5.25;;;;;;;;5147035;27;8776;-78
2021/10/08 13:20:02;;;;;;;;;3.00;3.00;;;;;;;;5145942;27;8856;-79
2021/10/08 13:22:28;;;;;;;;;6.00;5.00;;;;;;;;5141860;27;8772;-79
2021/10/08 13:24:53;;;;;;;;;4.67;4.67;;;;;;;;5147238;27;8881;-78
2021/10/08 13:27:19;;;;;;;;;4.75;4.75;;;;;;;;5139979;27;8776;-82
2021/10/08 13:29:44;;;;;;;;;5.00;5.00;;;;;;;;5132529;27;8850;-84
2021/10/08 13:32:11;;;;;;;;;6.00;6.00;;;;;;;;5137513;27;8855;-79
2021/10/08 13:34:37;;;;;;;;;4.00;4.00;;;;;;;;5142000;27;8802;-81
2021/10/08 13:37:02;;;;;;;;;5.75;5.75;;;;;;;;5143656;27;8848;-85
2021/10/08 13:39:27;;;;;;;;;5.75;5.25;;;;;;;;5142237;27;8856;-84
2021/10/08 13:41:52;;;;;;;;;4.25;3.75;;;;;;;;5144350;27;8871;-81
2021/10/08 13:44:18;;;;;;;;;5.00;5.00;;;;;;;;5143299;27;8865;-85
2021/10/08 13:46:43;;;;;;;;;3.75;3.75;;;;;;;;5142143;27;8828;-80
2021/10/08 13:49:08;;;;;;;;;3.75;3.75;;;;;;;;5145401;27;8754;-85
2021/10/08 13:51:33;;;;;;;;;3.25;3.25;;;;;;;;5143226;27;8857;-86
2021/10/08 13:53:59;;;;;;;;;5.00;5.00;;;;;;;;5152422;27;8828;-79
2021/10/08 13:56:24;;;;;;;;;5.00;4.25;;;;;;;;5148655;27;8837;-79
2021/10/08 13:58:49;;;;;;;;;6.00;4.67;;;;;;;;5149520;27;8799;-84
2021/10/08 14:01:15;;;;;;;;;5.00;5.00;;;;;;;;5132718;27;8811;-84
2021/10/08 14:09:10;;;;;;;;;4.60;4.60;;;;;;;;5130852;28;8890;-85
2021/10/08 14:11:36;;;;;;;;;5.00;5.00;;;;;;;;5125784;27;9642;-82
2021/10/08 14:14:01;;;;;;;;;4.00;4.00;;;;;;;;5142641;27;8804;-82
2021/10/08 14:16:28;;;;;;;;;5.00;5.00;;;;;;;;5144740;27;8804;-81
2021/10/08 14:18:53;;;;;;;;;4.00;4.00;;;;;;;;5142096;27;8756;-80
2021/10/08 14:21:19;;;;;;;;;7.00;4.67;;;;;;;;5142426;27;8816;-79
2021/10/08 14:23:44;;;;;;;;;4.00;4.00;;;;;;;;5139551;27;9374;-79
2021/10/08 14:26:09;;;;;;;;;5.33;5.33;;;;;;;;5143686;27;8800;-80
2021/10/08 14:28:34;;;;;;;;;5.33;4.00;;;;;;;;5142439;27;9702;-79
2021/10/08 14:30:59;;;;;;;;;6.00;6.00;;;;;;;;5142665;27;8828;-82
2021/10/08 14:33:25;;;;;;;;;7.33;7.33;;;;;;;;5128410;27;8815;-81
2021/10/08 14:35:50;;;;;;;;;4.00;4.00;;;;;;;;5129634;28;8914;-82
2021/10/08 14:38:16;;;;;;;;;4.67;4.67;;;;;;;;5141297;27;8863;-78
2021/10/08 14:40:41;;;;;;;;;5.00;3.50;;;;;;;;5144431;27;8771;-81
2021/10/08 14:43:06;;;;;;;;;4.33;4.33;;;;;;;;5146218;27;8915;-78
2021/10/08 14:45:32;;;;;;;;;4.33;4.33;;;;;;;;5143643;27;8819;-79